Time;durP1;ratioP1;P1;durP2;ratioP2;P2;SDS_P1;SDS_P2;PMS_P1;PMS_P2;Temp;Humidity;BMP_temperature;BMP_pressure;BME280_temperature;BME280_humidity;BME280_pressure;Samples;Min_cycle;Max_cycle;Signal;HPM_P1;HPM_P2
2022/03/21 00:01:04;;;;;;;60.13;36.78;;;6.20;99.90;;;;;;5043683;28;20131;-77
2022/03/21 00:03:30;;;;;;;60.22;38.70;;;6.20;99.90;;;;;;5035935;28;20086;-77
2022/03/21 00:06:00;;;;;;;63.85;40.65;;;6.40;99.90;;;;;;5035389;28;20057;-78
2022/03/21 00:08:26;;;;;;;63.13;40.10;;;6.40;99.90;;;;;;5042040;28;20029;-76
2022/03/21 00:10:54;;;;;;;61.00;39.05;;;6.40;99.90;;;;;;5040256;28;20380;-77
2022/03/21 00:13:20;;;;;;;61.63;39.85;;;6.50;99.90;;;;;;5039684;28;20112;-78
2022/03/21 00:15:47;;;;;;;57.55;38.65;;;6.50;99.90;;;;;;5038441;28;20160;-77
2022/03/21 00:18:14;;;;;;;56.35;36.72;;;6.50;99.90;;;;;;5046305;28;20037;-78
2022/03/21 00:20:43;;;;;;;59.90;37.33;;;6.50;99.90;;;;;;5035997;28;20029;-77
2022/03/21 00:23:10;;;;;;;65.18;42.47;;;6.50;99.90;;;;;;5037638;28;20064;-77
2022/03/21 00:25:36;;;;;;;59.40;37.15;;;6.50;99.90;;;;;;5049059;28;20393;-77
2022/03/21 00:28:02;;;;;;;58.22;35.88;;;6.50;99.90;;;;;;5043200;28;20028;-77
2022/03/21 00:30:29;;;;;;;57.13;34.67;;;6.40;99.90;;;;;;5046018;28;20041;-77
2022/03/21 00:32:55;;;;;;;55.42;35.25;;;6.40;99.90;;;;;;5037460;28;20366;-77
2022/03/21 00:35:20;;;;;;;53.38;35.28;;;6.40;99.90;;;;;;5045247;28;20108;-77
2022/03/21 00:37:47;;;;;;;58.25;37.58;;;6.30;99.90;;;;;;5044363;28;20064;-77
2022/03/21 00:40:14;;;;;;;64.22;39.33;;;6.30;99.90;;;;;;5041548;28;20108;-77
2022/03/21 00:42:42;;;;;;;61.92;39.30;;;6.30;99.90;;;;;;5038461;28;20033;-78
2022/03/21 00:45:13;;;;;;;59.05;38.08;;;6.30;99.90;;;;;;5042019;28;20052;-77
2022/03/21 00:47:39;;;;;;;60.50;38.20;;;6.30;99.90;;;;;;5037000;28;20075;-77
2022/03/21 00:50:14;;;;;;;62.55;38.33;;;6.30;99.90;;;;;;5049439;28;20388;-76
2022/03/21 00:52:42;;;;;;;61.63;39.10;;;6.30;99.90;;;;;;5036777;28;20464;-76
2022/03/21 00:55:09;;;;;;;66.07;40.15;;;6.20;99.90;;;;;;5035347;28;20120;-78
2022/03/21 00:57:35;;;;;;;58.05;39.30;;;6.20;99.90;;;;;;5050312;28;20457;-77
2022/03/21 01:00:03;;;;;;;72.05;43.00;;;6.20;99.90;;;;;;5044215;28;20505;-77
2022/03/21 01:02:28;;;;;;;68.20;41.70;;;6.10;99.90;;;;;;5044940;28;20032;-77
2022/03/21 01:04:54;;;;;;;68.90;42.97;;;6.10;99.90;;;;;;5036190;28;20014;-77
2022/03/21 01:07:19;;;;;;;66.72;43.20;;;6.10;99.90;;;;;;5041439;28;20041;-77
2022/03/21 01:09:45;;;;;;;73.25;44.58;;;6.10;99.90;;;;;;5041290;28;20377;-77
2022/03/21 01:12:11;;;;;;;75.88;42.00;;;6.10;99.90;;;;;;5043677;28;20025;-77
2022/03/21 01:14:36;;;;;;;66.50;41.45;;;5.90;99.90;;;;;;5048554;28;20029;-77
2022/03/21 01:17:02;;;;;;;66.78;41.42;;;5.90;99.90;;;;;;5047215;28;20485;-77
2022/03/21 01:19:30;;;;;;;73.35;45.13;;;5.90;99.90;;;;;;5026734;28;20108;-76
2022/03/21 01:21:56;;;;;;;81.50;48.80;;;5.90;99.90;;;;;;5049710;28;20025;-76
2022/03/21 01:24:22;;;;;;;66.25;41.65;;;5.90;99.90;;;;;;5046157;28;20508;-77
2022/03/21 01:26:48;;;;;;;75.18;41.88;;;5.90;99.90;;;;;;5043845;28;20029;-76
2022/03/21 01:29:13;;;;;;;67.40;41.67;;;5.80;99.90;;;;;;5032874;28;20033;-77
2022/03/21 01:31:39;;;;;;;69.60;42.53;;;5.80;99.90;;;;;;5049422;28;20068;-77
2022/03/21 01:34:04;;;;;;;69.80;43.25;;;5.80;99.90;;;;;;5043066;28;20028;-77
2022/03/21 01:36:30;;;;;;;67.30;42.58;;;5.70;99.90;;;;;;5042780;28;20079;-77
2022/03/21 01:38:56;;;;;;;65.47;39.15;;;5.70;99.90;;;;;;5034649;28;20033;-77
2022/03/21 01:41:21;;;;;;;72.90;44.17;;;5.70;99.90;;;;;;5034050;28;20033;-76
2022/03/21 01:44:02;;;;;;;76.20;46.75;;;5.60;99.90;;;;;;5039691;28;20047;-77
2022/03/21 01:46:28;;;;;;;73.05;44.25;;;5.60;99.90;;;;;;5042387;28;20021;-77
2022/03/21 01:48:54;;;;;;;71.03;44.33;;;5.60;99.90;;;;;;5039249;28;20486;-77
2022/03/21 01:51:20;;;;;;;70.82;43.10;;;5.50;99.90;;;;;;5046766;28;20578;-78
2022/03/21 01:56:31;;;;;;;67.60;41.65;;;5.40;99.90;;;;;;5048509;28;20075;-77
2022/03/21 01:58:57;;;;;;;71.03;42.67;;;5.50;99.90;;;;;;5039132;28;20049;-77
2022/03/21 02:01:23;;;;;;;69.32;42.65;;;5.40;99.90;;;;;;5046627;28;20476;-77
2022/03/21 02:03:49;;;;;;;65.38;41.38;;;5.40;99.90;;;;;;5044006;28;20029;-77
2022/03/21 02:06:14;;;;;;;71.57;43.42;;;5.30;99.90;;;;;;5035793;28;20092;-77
2022/03/21 02:08:40;;;;;;;71.90;43.92;;;5.30;99.90;;;;;;5036484;28;20029;-77
2022/03/21 02:11:06;;;;;;;74.00;43.05;;;5.30;99.90;;;;;;5045310;28;20527;-76
2022/03/21 02:13:34;;;;;;;75.07;44.38;;;5.20;99.90;;;;;;5035446;28;20025;-77
2022/03/21 02:16:00;;;;;;;65.60;40.60;;;5.20;99.90;;;;;;5037723;28;20120;-77
2022/03/21 02:18:28;;;;;;;72.30;43.70;;;5.20;99.90;;;;;;5037660;28;20057;-77
2022/03/21 02:20:55;;;;;;;76.78;46.83;;;5.20;99.90;;;;;;5044138;28;20017;-77
2022/03/21 02:23:41;;;;;;;79.97;46.25;;;5.20;99.90;;;;;;5038923;28;20140;-77
2022/03/21 02:26:10;;;;;;;78.30;46.72;;;5.10;99.90;;;;;;5038308;28;20424;-77
2022/03/21 02:28:36;;;;;;;80.07;47.88;;;5.10;99.90;;;;;;5037822;28;20025;-77
2022/03/21 02:31:02;;;;;;;77.68;45.90;;;5.10;99.90;;;;;;5044631;28;20033;-77
2022/03/21 02:33:28;;;;;;;80.47;47.08;;;5.00;99.90;;;;;;5045416;28;20032;-77
2022/03/21 02:35:56;;;;;;;89.47;50.63;;;4.80;99.90;;;;;;5053388;28;20029;-76
2022/03/21 02:38:23;;;;;;;84.00;49.95;;;4.90;99.90;;;;;;5043018;28;20022;-78
2022/03/21 02:40:49;;;;;;;87.95;51.08;;;4.80;99.90;;;;;;5044926;28;20121;-77
2022/03/21 02:43:14;;;;;;;91.05;52.72;;;4.80;99.90;;;;;;5044647;28;20025;-77
2022/03/21 02:45:41;;;;;;;86.32;50.22;;;4.80;99.90;;;;;;5039097;28;20033;-77
2022/03/21 02:48:07;;;;;;;83.95;49.88;;;4.80;99.90;;;;;;5038595;28;20030;-77
2022/03/21 02:50:43;;;;;;;78.38;47.92;;;4.80;99.90;;;;;;5041486;28;20120;-77
2022/03/21 02:53:10;;;;;;;80.85;49.58;;;4.70;99.90;;;;;;5037949;28;20029;-77
2022/03/21 02:55:38;;;;;;;84.85;51.17;;;4.70;99.90;;;;;;5039516;28;20044;-77
2022/03/21 02:58:03;;;;;;;77.43;47.53;;;4.80;99.90;;;;;;5037463;28;20053;-77
2022/03/21 03:00:29;;;;;;;76.05;46.85;;;4.70;99.90;;;;;;5045854;28;20056;-77
2022/03/21 03:02:55;;;;;;;77.80;46.55;;;4.70;99.90;;;;;;5043850;28;20029;-77
2022/03/21 03:05:20;;;;;;;82.20;48.35;;;4.70;99.90;;;;;;5039477;28;20500;-77
2022/03/21 03:07:46;;;;;;;77.47;47.72;;;4.70;99.90;;;;;;5033894;28;20029;-77
2022/03/21 03:10:11;;;;;;;78.95;46.17;;;4.60;99.90;;;;;;5037852;28;20549;-78
2022/03/21 03:12:37;;;;;;;81.40;47.05;;;4.60;99.90;;;;;;5036426;28;20051;-77
2022/03/21 03:15:04;;;;;;;83.82;47.10;;;4.60;99.90;;;;;;5039739;28;20355;-78
2022/03/21 03:17:29;;;;;;;83.82;46.17;;;4.60;99.90;;;;;;5040827;28;20017;-77
2022/03/21 03:19:55;;;;;;;75.85;44.47;;;4.60;99.90;;;;;;5039815;28;20047;-78
2022/03/21 03:22:23;;;;;;;77.60;44.58;;;4.60;99.90;;;;;;5036241;28;20037;-77
2022/03/21 03:24:50;;;;;;;74.13;45.22;;;4.60;99.90;;;;;;5042245;28;20470;-77
2022/03/21 03:27:16;;;;;;;74.03;43.40;;;4.60;99.90;;;;;;5036864;28;20398;-77
2022/03/21 03:29:41;;;;;;;73.90;42.53;;;4.60;99.90;;;;;;5039837;28;20029;-77
2022/03/21 03:32:08;;;;;;;77.57;46.05;;;4.50;99.90;;;;;;5049289;28;20037;-77
2022/03/21 03:34:34;;;;;;;79.43;47.92;;;4.50;99.90;;;;;;5051297;28;20107;-77
2022/03/21 03:37:00;;;;;;;76.50;46.47;;;4.50;99.90;;;;;;5041424;28;20029;-77
2022/03/21 03:39:26;;;;;;;81.72;48.10;;;4.60;99.90;;;;;;5039264;28;20493;-77
2022/03/21 03:41:52;;;;;;;80.57;46.08;;;4.50;99.90;;;;;;5033815;28;20104;-77
2022/03/21 03:44:18;;;;;;;80.75;47.58;;;4.40;99.90;;;;;;5035745;28;20109;-77
2022/03/21 03:46:47;;;;;;;75.93;44.25;;;4.40;99.90;;;;;;5036813;28;20405;-77
2022/03/21 03:49:12;;;;;;;77.38;47.17;;;4.50;99.90;;;;;;5033825;28;20094;-77
2022/03/21 03:51:38;;;;;;;78.28;45.00;;;4.40;99.90;;;;;;5044625;28;20119;-77
2022/03/21 03:54:04;;;;;;;79.22;47.10;;;4.40;99.90;;;;;;5046654;28;20104;-77
2022/03/21 03:56:29;;;;;;;87.07;51.42;;;4.40;99.90;;;;;;5043276;28;20029;-77
2022/03/21 03:58:55;;;;;;;79.45;48.75;;;4.40;99.90;;;;;;5036735;28;20465;-78
2022/03/21 04:01:20;;;;;;;81.55;47.08;;;4.40;99.90;;;;;;5041644;28;20025;-77
2022/03/21 04:03:46;;;;;;;84.93;48.78;;;4.40;99.90;;;;;;5044627;28;20035;-77
2022/03/21 04:06:15;;;;;;;78.20;46.45;;;4.50;99.90;;;;;;5040079;28;20022;-77
2022/03/21 04:08:41;;;;;;;81.30;48.97;;;4.40;99.90;;;;;;5034816;28;20040;-77
2022/03/21 04:11:07;;;;;;;87.47;48.55;;;4.40;99.90;;;;;;5036421;28;20029;-77
2022/03/21 04:13:32;;;;;;;82.00;48.28;;;4.30;99.90;;;;;;5044872;28;20052;-77
2022/03/21 04:15:58;;;;;;;80.45;47.63;;;4.40;99.90;;;;;;5045385;28;20037;-77
2022/03/21 04:18:25;;;;;;;83.32;48.92;;;4.30;99.90;;;;;;5037161;28;20033;-77
2022/03/21 04:20:52;;;;;;;84.53;49.88;;;4.30;99.90;;;;;;5038107;28;20785;-76
2022/03/21 04:23:17;;;;;;;88.00;50.72;;;4.20;99.90;;;;;;5041214;28;20354;-77
2022/03/21 04:25:44;;;;;;;84.28;47.75;;;4.20;99.90;;;;;;5043294;28;20038;-77
2022/03/21 04:28:11;;;;;;;82.80;49.63;;;4.20;99.90;;;;;;5040905;28;20052;-77
2022/03/21 04:30:37;;;;;;;81.63;46.53;;;4.10;99.90;;;;;;5046861;28;20056;-76
2022/03/21 04:33:04;;;;;;;84.47;46.25;;;4.10;99.90;;;;;;5044437;28;20064;-77
2022/03/21 04:35:32;;;;;;;77.18;45.97;;;4.10;99.90;;;;;;5027690;28;20078;-77
2022/03/21 04:37:57;;;;;;;84.47;46.97;;;4.10;99.90;;;;;;5039326;28;20484;-77
2022/03/21 04:40:24;;;;;;;76.50;45.78;;;4.10;99.90;;;;;;5043700;28;20668;-76
2022/03/21 04:42:50;;;;;;;76.70;46.30;;;4.10;99.90;;;;;;5041124;28;20021;-77
2022/03/21 04:45:16;;;;;;;81.43;47.40;;;4.10;99.90;;;;;;5045187;28;20030;-77
2022/03/21 04:47:43;;;;;;;84.68;49.78;;;4.10;99.90;;;;;;5037231;28;20026;-77
2022/03/21 04:50:09;;;;;;;85.57;48.75;;;4.10;99.90;;;;;;5038153;28;20472;-77
2022/03/21 04:52:35;;;;;;;89.15;49.72;;;4.10;99.90;;;;;;5043180;28;20118;-77
2022/03/21 04:55:01;;;;;;;92.03;51.38;;;4.00;99.90;;;;;;5044994;28;20037;-77
2022/03/21 04:57:27;;;;;;;88.93;52.75;;;4.00;99.90;;;;;;5041677;28;20036;-77
2022/03/21 04:59:54;;;;;;;77.35;47.53;;;4.00;99.90;;;;;;5044644;28;20029;-77
2022/03/21 05:02:21;;;;;;;88.45;51.30;;;4.00;99.90;;;;;;5041703;28;20386;-77
2022/03/21 05:04:47;;;;;;;92.38;52.88;;;4.10;99.90;;;;;;5044104;28;20014;-77
2022/03/21 05:07:16;;;;;;;91.20;50.10;;;4.00;99.90;;;;;;5040907;28;20435;-77
2022/03/21 05:09:42;;;;;;;84.30;49.45;;;4.00;99.90;;;;;;5024406;28;20022;-77
2022/03/21 05:12:09;;;;;;;88.18;50.47;;;4.00;99.90;;;;;;5031427;28;20030;-77
2022/03/21 05:14:35;;;;;;;85.20;50.30;;;4.00;99.90;;;;;;5046316;28;20033;-77
2022/03/21 05:17:02;;;;;;;86.25;49.63;;;3.90;99.90;;;;;;5034459;28;20026;-77
2022/03/21 05:19:35;;;;;;;91.53;50.75;;;3.90;99.90;;;;;;5043557;28;20029;-77
2022/03/21 05:22:10;;;;;;;89.18;50.17;;;3.90;99.90;;;;;;5038483;28;20135;-78
2022/03/21 05:35:52;;;;;;;85.97;46.35;;;3.90;99.90;;;;;;5038420;28;20039;-78
2022/03/21 05:35:54;;;;;;;86.35;47.10;;;3.90;99.90;;;;;;5046465;28;20033;-77
2022/03/21 05:38:22;;;;;;;89.13;48.97;;;3.90;99.90;;;;;;5043873;28;20041;-78
2022/03/21 05:40:48;;;;;;;88.90;48.35;;;3.90;99.90;;;;;;5042710;28;20056;-77
2022/03/21 05:43:14;;;;;;;90.57;49.28;;;3.80;99.90;;;;;;5030370;28;20068;-77
2022/03/21 05:45:41;;;;;;;85.32;47.10;;;3.90;99.90;;;;;;5041900;28;20075;-77
2022/03/21 05:50:51;;;;;;;91.97;49.25;;;3.90;99.90;;;;;;5040416;28;20142;-77
2022/03/21 05:53:18;;;;;;;84.30;48.05;;;3.80;99.90;;;;;;5039635;28;20073;-77
2022/03/21 05:55:45;;;;;;;89.63;48.38;;;3.90;99.90;;;;;;5043776;28;20037;-77
2022/03/21 05:58:12;;;;;;;91.82;50.50;;;3.80;99.90;;;;;;5046657;28;20025;-77
2022/03/21 06:00:38;;;;;;;90.15;48.88;;;3.80;99.90;;;;;;5044054;28;20443;-77
2022/03/21 06:03:04;;;;;;;83.40;48.53;;;3.80;99.90;;;;;;5045554;28;20037;-77
2022/03/21 06:05:30;;;;;;;93.32;51.58;;;3.80;99.90;;;;;;5046121;28;20021;-78
2022/03/21 06:07:56;;;;;;;86.15;49.13;;;3.80;99.90;;;;;;5043285;28;20096;-77
2022/03/21 06:10:21;;;;;;;83.13;45.80;;;3.80;99.90;;;;;;5045656;28;20038;-77
2022/03/21 06:12:48;;;;;;;93.95;49.97;;;3.80;99.90;;;;;;5037727;28;20512;-77
2022/03/21 06:15:14;;;;;;;86.35;49.35;;;3.80;99.90;;;;;;5039614;28;20013;-78
2022/03/21 06:17:41;;;;;;;94.47;51.08;;;3.70;99.90;;;;;;5043020;28;20040;-78
2022/03/21 06:20:17;;;;;;;86.55;50.40;;;3.70;99.90;;;;;;5045658;28;20113;-77
2022/03/21 06:22:42;;;;;;;85.47;50.13;;;3.70;99.90;;;;;;5031010;28;20036;-77
2022/03/21 06:25:09;;;;;;;89.70;51.42;;;3.70;99.90;;;;;;5033666;28;20084;-77
2022/03/21 06:27:38;;;;;;;89.78;50.63;;;3.70;99.90;;;;;;5052893;28;20106;-77
2022/03/21 06:30:06;;;;;;;81.30;45.53;;;3.80;99.90;;;;;;5041463;28;20107;-76
2022/03/21 06:32:31;;;;;;;83.00;46.67;;;3.80;99.90;;;;;;5031710;28;20372;-77
2022/03/21 06:34:57;;;;;;;90.95;48.70;;;3.80;99.90;;;;;;5043719;28;20037;-77
2022/03/21 06:37:23;;;;;;;87.72;48.50;;;3.80;99.90;;;;;;5045672;28;20026;-76
2022/03/21 06:39:48;;;;;;;77.97;44.22;;;3.80;99.90;;;;;;5048630;28;20029;-76
2022/03/21 06:42:14;;;;;;;83.18;46.30;;;3.90;99.90;;;;;;5041692;28;20036;-77
2022/03/21 06:44:41;;;;;;;87.90;45.90;;;3.90;99.90;;;;;;5045645;28;20061;-75
2022/03/21 06:47:08;;;;;;;85.32;46.72;;;4.00;99.90;;;;;;5029709;28;20029;-77
2022/03/21 06:49:34;;;;;;;86.65;47.85;;;4.00;99.90;;;;;;5030608;28;20363;-77
2022/03/21 06:52:04;;;;;;;87.13;47.13;;;4.00;99.90;;;;;;5044612;28;20107;-77
2022/03/21 06:54:30;;;;;;;84.43;47.10;;;4.10;99.90;;;;;;5036157;28;20112;-78
2022/03/21 06:56:56;;;;;;;82.93;45.75;;;4.00;99.90;;;;;;5026707;28;20478;-77
2022/03/21 06:59:22;;;;;;;83.20;47.92;;;4.00;99.90;;;;;;5038589;28;20473;-77
2022/03/21 07:01:48;;;;;;;81.28;45.47;;;4.00;99.90;;;;;;5029761;28;20037;-77
2022/03/21 07:04:14;;;;;;;82.43;46.38;;;4.10;99.90;;;;;;5036152;28;20519;-78
2022/03/21 07:06:40;;;;;;;81.90;46.42;;;4.10;99.90;;;;;;5022693;28;20061;-77
2022/03/21 07:09:06;;;;;;;82.15;45.05;;;4.10;99.90;;;;;;5024087;28;20057;-76
2022/03/21 07:11:34;;;;;;;84.70;47.33;;;4.20;99.90;;;;;;5028725;28;20512;-77
2022/03/21 07:14:00;;;;;;;81.10;46.10;;;4.30;99.90;;;;;;5027995;28;20115;-77
2022/03/21 07:16:26;;;;;;;85.55;46.80;;;4.40;99.90;;;;;;5033544;28;20090;-77
2022/03/21 07:18:52;;;;;;;84.03;46.47;;;4.40;99.90;;;;;;5036567;28;20458;-77
2022/03/21 07:21:17;;;;;;;80.22;44.33;;;4.50;99.90;;;;;;5032956;28;20450;-76
2022/03/21 07:23:43;;;;;;;74.72;43.60;;;4.60;99.90;;;;;;5030194;28;20037;-77
2022/03/21 07:26:11;;;;;;;84.90;43.90;;;4.60;99.90;;;;;;5034368;28;20021;-75
2022/03/21 07:28:37;;;;;;;80.35;45.70;;;4.70;99.90;;;;;;5047307;28;20025;-75
2022/03/21 07:31:03;;;;;;;82.13;45.20;;;4.80;99.90;;;;;;5037199;28;20064;-76
2022/03/21 07:33:28;;;;;;;83.53;46.85;;;4.90;99.90;;;;;;5030804;28;20040;-76
2022/03/21 07:35:54;;;;;;;81.50;48.17;;;4.90;99.90;;;;;;5033523;28;20083;-76
2022/03/21 07:38:22;;;;;;;87.47;48.92;;;5.00;99.90;;;;;;5022956;28;20100;-76
2022/03/21 07:40:48;;;;;;;86.20;48.78;;;5.10;99.90;;;;;;5039399;28;20043;-76
2022/03/21 07:43:14;;;;;;;87.13;49.47;;;5.10;99.90;;;;;;5038868;28;20021;-77
2022/03/21 07:48:27;;;;;;;90.20;50.22;;;5.30;99.90;;;;;;5033146;28;20087;-78
2022/03/21 07:50:54;;;;;;;85.43;46.53;;;5.40;99.90;;;;;;5039272;28;20127;-77
2022/03/21 07:53:21;;;;;;;76.38;44.10;;;5.60;99.90;;;;;;5028331;28;20053;-76
2022/03/21 07:55:47;;;;;;;70.40;39.35;;;5.70;99.90;;;;;;5037511;28;20026;-73
2022/03/21 07:58:12;;;;;;;75.97;40.65;;;5.90;99.90;;;;;;5037103;28;20025;-75
2022/03/21 08:00:41;;;;;;;76.07;41.22;;;6.10;99.90;;;;;;5032003;28;20017;-75
2022/03/21 08:03:09;;;;;;;69.10;38.10;;;6.30;99.90;;;;;;5028587;28;20026;-74
2022/03/21 08:05:35;;;;;;;71.30;38.75;;;6.60;99.90;;;;;;5042413;28;20112;-75
2022/03/21 08:08:00;;;;;;;57.25;30.42;;;6.90;99.90;;;;;;5037452;28;20529;-75
2022/03/21 08:10:27;;;;;;;59.58;31.85;;;6.90;99.90;;;;;;5030348;28;20029;-75
2022/03/21 08:12:55;;;;;;;56.58;28.15;;;7.20;99.90;;;;;;5036697;28;20025;-75
2022/03/21 08:15:21;;;;;;;52.65;28.83;;;7.50;99.90;;;;;;5038679;28;20466;-75
2022/03/21 08:17:51;;;;;;;43.65;26.02;;;7.80;99.90;;;;;;5031962;28;20025;-74
2022/03/21 08:20:21;;;;;;;43.97;24.67;;;8.00;99.90;;;;;;5027802;28;20061;-74
2022/03/21 08:22:48;;;;;;;43.08;24.88;;;8.20;99.90;;;;;;5029048;28;20033;-75
2022/03/21 08:25:20;;;;;;;40.13;22.85;;;8.40;99.90;;;;;;5040927;28;20029;-75
2022/03/21 08:27:47;;;;;;;44.45;23.65;;;8.70;99.90;;;;;;5025594;28;20030;-75
2022/03/21 08:30:15;;;;;;;38.92;22.88;;;8.90;99.90;;;;;;5032869;28;20116;-74
2022/03/21 08:32:42;;;;;;;37.42;22.75;;;9.10;99.90;;;;;;5033612;28;20021;-75
2022/03/21 08:35:09;;;;;;;37.60;23.30;;;9.30;99.90;;;;;;5034480;28;20121;-76
2022/03/21 08:37:35;;;;;;;39.65;22.08;;;9.30;99.90;;;;;;5044075;28;20036;-77
2022/03/21 08:40:01;;;;;;;42.97;23.13;;;9.50;99.90;;;;;;5039019;28;20029;-78
2022/03/21 08:42:29;;;;;;;42.80;23.65;;;9.70;99.90;;;;;;5027967;28;20025;-78
2022/03/21 08:44:55;;;;;;;37.45;22.00;;;9.90;99.90;;;;;;5037064;28;20024;-78
2022/03/21 08:47:21;;;;;;;34.03;20.65;;;10.00;99.90;;;;;;5036526;28;20104;-76
2022/03/21 08:49:46;;;;;;;35.55;21.60;;;10.20;99.90;;;;;;5038111;28;20121;-77
2022/03/21 08:52:13;;;;;;;39.95;21.13;;;10.40;99.90;;;;;;5030935;28;20417;-78
2022/03/21 08:54:39;;;;;;;33.13;20.48;;;10.60;99.90;;;;;;5040159;28;20029;-77
2022/03/21 08:57:05;;;;;;;36.42;20.95;;;10.80;99.90;;;;;;5040833;28;20025;-77
2022/03/21 08:59:32;;;;;;;37.58;20.10;;;10.80;99.90;;;;;;5034306;28;20024;-78
2022/03/21 09:01:58;;;;;;;34.83;20.90;;;10.90;99.90;;;;;;5043266;28;20040;-77
2022/03/21 09:04:23;;;;;;;35.60;21.10;;;11.00;99.90;;;;;;5041162;28;20386;-76
2022/03/21 09:06:49;;;;;;;39.28;22.98;;;11.10;99.90;;;;;;5037933;28;20029;-76
2022/03/21 09:09:18;;;;;;;36.88;20.02;;;11.30;99.90;;;;;;5031009;28;20021;-76
2022/03/21 09:11:44;;;;;;;36.05;19.55;;;11.40;99.90;;;;;;5039549;28;20562;-76
2022/03/21 09:14:10;;;;;;;33.22;19.90;;;11.60;99.90;;;;;;5033986;28;20070;-76
2022/03/21 09:16:38;;;;;;;32.17;20.30;;;11.70;99.90;;;;;;5036360;28;20146;-76
2022/03/21 09:19:04;;;;;;;41.45;21.92;;;11.80;99.90;;;;;;5025918;28;20018;-77
2022/03/21 09:21:29;;;;;;;32.25;18.83;;;11.90;99.90;;;;;;5032372;28;20497;-76
2022/03/21 09:23:55;;;;;;;37.45;20.33;;;11.90;99.90;;;;;;5028959;28;20029;-75
2022/03/21 09:26:22;;;;;;;31.98;19.83;;;12.00;99.90;;;;;;5036486;28;20030;-76
2022/03/21 09:28:48;;;;;;;37.17;19.40;;;12.10;99.90;;;;;;5040262;28;20056;-76
2022/03/21 09:31:15;;;;;;;37.00;20.52;;;12.30;99.90;;;;;;5026026;28;20069;-76
2022/03/21 09:33:41;;;;;;;34.70;21.75;;;12.40;99.90;;;;;;5045234;28;20355;-76
2022/03/21 09:36:08;;;;;;;31.67;20.10;;;12.60;99.90;;;;;;5037986;28;20140;-76
2022/03/21 09:38:36;;;;;;;34.05;20.77;;;12.70;99.90;;;;;;5026756;28;20025;-77
2022/03/21 09:41:03;;;;;;;32.00;19.42;;;12.90;99.90;;;;;;5029785;28;20024;-76
2022/03/21 09:43:30;;;;;;;34.22;18.27;;;13.10;99.90;;;;;;5024000;28;20036;-76
2022/03/21 09:45:57;;;;;;;30.58;19.23;;;13.20;99.90;;;;;;5038679;28;20025;-76
2022/03/21 09:48:26;;;;;;;34.25;21.20;;;13.30;99.90;;;;;;5023045;28;20125;-77
2022/03/21 09:50:55;;;;;;;32.58;20.42;;;13.40;99.90;;;;;;5038741;28;20088;-72
2022/03/21 09:53:21;;;;;;;32.17;19.73;;;13.50;99.90;;;;;;5033460;28;20122;-77
2022/03/21 09:55:47;;;;;;;32.10;19.92;;;13.70;99.90;;;;;;5030547;28;20076;-77
2022/03/21 09:58:13;;;;;;;32.60;19.75;;;13.80;99.90;;;;;;5039363;28;20017;-77
2022/03/21 10:00:40;;;;;;;32.47;20.83;;;13.80;99.90;;;;;;5028485;28;20024;-77
2022/03/21 10:03:06;;;;;;;27.85;19.48;;;14.00;99.90;;;;;;5042536;28;20060;-77
2022/03/21 10:05:39;;;;;;;34.08;19.13;;;14.30;99.90;;;;;;5035852;28;20029;-79
2022/03/21 10:08:15;;;;;;;41.13;19.65;;;14.30;99.90;;;;;;5035663;28;20023;-80
2022/03/21 10:10:53;;;;;;;37.58;23.17;;;14.50;99.90;;;;;;5035675;28;20040;-80
2022/03/21 10:13:20;;;;;;;33.42;21.02;;;14.70;99.90;;;;;;5029323;28;20014;-81
2022/03/21 10:15:46;;;;;;;30.65;20.27;;;14.80;99.90;;;;;;5035413;28;20067;-81
2022/03/21 10:18:12;;;;;;;33.72;20.10;;;15.10;99.90;;;;;;5033219;28;20410;-81
2022/03/21 10:20:40;;;;;;;34.67;21.58;;;15.20;99.90;;;;;;5033537;28;20025;-81
2022/03/21 10:23:23;;;;;;;31.60;19.00;;;15.30;99.90;;;;;;5031944;28;20026;-83
2022/03/21 10:25:50;;;;;;;35.78;20.65;;;15.40;99.90;;;;;;5028199;28;20071;-86
2022/03/21 10:28:40;;;;;;;30.40;19.95;;;15.50;99.90;;;;;;5037243;28;20117;-80
2022/03/21 10:31:06;;;;;;;30.38;22.10;;;15.60;99.90;;;;;;5033777;28;20124;-84
2022/03/21 10:33:31;;;;;;;38.45;20.85;;;15.60;99.90;;;;;;5040490;28;20049;-84
2022/03/21 10:36:04;;;;;;;32.47;20.00;;;15.80;99.90;;;;;;5039969;28;20398;-87
2022/03/21 10:38:35;;;;;;;27.20;19.15;;;16.10;99.90;;;;;;5045343;28;20124;-86
2022/03/21 10:41:08;;;;;;;35.08;20.67;;;16.20;99.90;;;;;;5050512;28;20021;-85
2022/03/21 10:43:35;;;;;;;33.15;21.65;;;16.20;99.90;;;;;;5038730;28;20473;-81
2022/03/21 10:46:02;;;;;;;31.50;19.40;;;16.30;99.90;;;;;;5039146;28;20113;-85
2022/03/21 10:48:30;;;;;;;32.33;18.85;;;16.20;99.90;;;;;;5045134;28;20029;-83
2022/03/21 10:51:01;;;;;;;34.05;21.02;;;16.30;99.90;;;;;;5033693;28;20052;-84
2022/03/21 10:53:28;;;;;;;33.30;21.35;;;16.30;99.90;;;;;;5032751;28;20037;-83
2022/03/21 10:55:53;;;;;;;34.10;19.88;;;16.50;99.90;;;;;;5034062;28;20029;-79
2022/03/21 10:58:33;;;;;;;28.23;20.13;;;16.70;99.90;;;;;;5040784;28;20454;-80
2022/03/21 11:01:19;;;;;;;34.45;21.15;;;16.80;99.90;;;;;;5038340;28;20079;-82
2022/03/21 11:03:49;;;;;;;32.78;19.75;;;16.90;99.90;;;;;;5037621;28;20363;-80
2022/03/21 11:06:15;;;;;;;30.40;20.23;;;17.10;99.90;;;;;;5041942;28;20104;-81
2022/03/21 11:08:43;;;;;;;34.63;20.92;;;17.00;99.90;;;;;;5037350;28;20315;-82
2022/03/21 11:11:10;;;;;;;33.08;19.98;;;17.30;99.90;;;;;;5043303;28;20483;-81
2022/03/21 11:13:37;;;;;;;27.50;18.95;;;17.10;99.70;;;;;;5038261;28;20025;-82
2022/03/21 11:16:03;;;;;;;26.77;17.48;;;17.30;99.90;;;;;;5024364;28;20021;-80
2022/03/21 11:18:30;;;;;;;33.20;21.55;;;17.50;99.70;;;;;;5036889;28;20051;-81
2022/03/21 11:21:00;;;;;;;30.42;19.50;;;17.40;99.40;;;;;;5033659;28;20104;-80
2022/03/21 11:23:26;;;;;;;29.33;20.85;;;17.40;98.80;;;;;;5037652;28;20481;-81
2022/03/21 11:26:00;;;;;;;33.60;20.67;;;17.50;99.30;;;;;;5039937;28;20025;-81
2022/03/21 11:29:03;;;;;;;29.05;20.70;;;17.60;99.90;;;;;;5024896;28;20017;-80
2022/03/21 11:31:51;;;;;;;34.08;20.95;;;17.60;99.20;;;;;;5040332;28;20072;-82
2022/03/21 11:34:40;;;;;;;37.42;22.58;;;17.70;99.40;;;;;;5026877;28;20029;-82
2022/03/21 11:37:06;;;;;;;32.45;21.25;;;17.80;99.10;;;;;;5033829;28;20018;-82
2022/03/21 11:39:33;;;;;;;32.70;21.52;;;18.00;99.90;;;;;;5039824;28;20063;-82
2022/03/21 11:42:10;;;;;;;32.90;21.60;;;18.10;99.00;;;;;;5035478;28;20021;-83
2022/03/21 11:44:36;;;;;;;30.00;21.55;;;18.00;98.60;;;;;;5037381;28;20029;-83
2022/03/21 11:47:26;;;;;;;29.52;20.52;;;18.00;98.20;;;;;;5040428;28;20025;-83
2022/03/21 11:49:53;;;;;;;32.13;22.42;;;18.00;98.30;;;;;;5021810;28;20033;-83
2022/03/21 11:52:19;;;;;;;32.63;21.23;;;18.10;99.30;;;;;;5032511;28;20028;-83
2022/03/21 11:54:45;;;;;;;28.55;21.70;;;18.20;99.00;;;;;;5035431;28;20104;-83
2022/03/21 11:57:24;;;;;;;35.05;23.52;;;18.20;98.40;;;;;;5023883;28;20033;-82
2022/03/21 11:59:52;;;;;;;30.40;20.85;;;18.20;98.30;;;;;;5037447;28;20032;-83
2022/03/21 12:02:18;;;;;;;36.30;23.42;;;18.40;98.10;;;;;;5034678;28;20029;-83
2022/03/21 12:05:00;;;;;;;31.10;19.55;;;18.40;97.90;;;;;;5019932;28;20026;-83
2022/03/21 12:07:27;;;;;;;46.78;29.73;;;18.50;98.70;;;;;;5035521;28;20030;-83
2022/03/21 12:09:54;;;;;;;25.80;19.45;;;18.40;97.90;;;;;;5036566;28;20026;-80
2022/03/21 12:12:22;;;;;;;26.92;20.75;;;18.20;99.00;;;;;;5034632;28;20458;-82
2022/03/21 12:14:58;;;;;;;41.45;26.67;;;18.20;98.90;;;;;;5037914;28;20026;-83
2022/03/21 12:17:23;;;;;;;41.85;28.40;;;18.30;98.40;;;;;;5039792;28;20529;-80
2022/03/21 12:19:54;;;;;;;33.55;21.40;;;19.20;99.30;;;;;;5030153;28;20106;-82
2022/03/21 12:22:29;;;;;;;194.60;142.82;;;19.20;97.40;;;;;;5029515;28;20413;-83
2022/03/21 12:25:00;;;;;;;26.05;18.30;;;19.70;98.60;;;;;;5038431;28;20471;-82
2022/03/21 12:27:44;;;;;;;32.25;19.58;;;19.50;97.90;;;;;;5036531;28;20045;-83
2022/03/21 12:30:26;;;;;;;263.33;225.23;;;19.30;97.00;;;;;;5048158;28;20028;-82
2022/03/21 12:32:58;;;;;;;45.58;27.25;;;19.80;97.40;;;;;;5018959;28;20040;-82
2022/03/21 12:35:39;;;;;;;26.77;19.13;;;19.60;96.20;;;;;;5037039;28;20458;-82
2022/03/21 12:38:16;;;;;;;27.52;17.40;;;19.70;97.40;;;;;;5020704;28;21781;-81
2022/03/21 12:40:51;;;;;;;22.90;17.50;;;19.50;97.40;;;;;;5036721;28;20030;-82
2022/03/21 12:43:27;;;;;;;28.25;19.85;;;19.30;96.00;;;;;;5041033;28;20032;-83
2022/03/21 12:46:04;;;;;;;25.98;17.42;;;19.40;96.30;;;;;;5046719;28;20202;-83
2022/03/21 12:48:31;;;;;;;27.52;18.83;;;19.30;96.40;;;;;;5041637;28;20040;-82
2022/03/21 12:50:57;;;;;;;24.10;17.35;;;19.30;96.20;;;;;;5040846;28;20037;-82
2022/03/21 12:53:23;;;;;;;23.55;16.50;;;19.10;96.10;;;;;;5046435;28;20041;-82